createdAt,value
2022-10-28T00:01:21.834Z,5.07
2022-10-28T00:06:34.387Z,6.07
2022-10-28T00:11:35.865Z,5.07
2022-10-28T00:16:37.901Z,5.65
2022-10-28T00:21:40.513Z,5.53
2022-10-28T00:26:42.727Z,6.22
2022-10-28T00:36:46.021Z,6.10
2022-10-28T00:41:52.604Z,5.55
2022-10-28T00:46:54.052Z,5.95
2022-10-28T00:52:07.291Z,5.63
2022-10-28T00:57:10.853Z,6.88
2022-10-28T01:02:12.444Z,6.57
2022-10-28T01:07:14.576Z,5.68
2022-10-28T01:12:23.400Z,6.55
2022-10-28T01:18:12.970Z,6.47
2022-10-28T01:23:19.222Z,5.47
2022-10-28T01:28:46.724Z,5.57
2022-10-28T01:34:27.113Z,5.72
2022-10-28T01:39:28.399Z,5.95
2022-10-28T01:44:51.547Z,6.18
2022-10-28T01:49:56.660Z,5.85
2022-10-28T01:55:02.462Z,5.47
2022-10-28T02:00:04.449Z,6.43
2022-10-28T02:05:33.524Z,5.88
2022-10-28T02:10:37.028Z,6.32
2022-10-28T02:15:52.767Z,5.25
2022-10-28T02:21:03.159Z,5.45
2022-10-28T02:26:22.613Z,6.70
2022-10-28T02:31:26.586Z,5.97
2022-10-28T02:36:28.989Z,6.43
2022-10-28T02:41:33.663Z,6.93
2022-10-28T02:46:35.383Z,6.95
2022-10-28T02:51:38.577Z,7.18
2022-10-28T02:56:53.662Z,7.07
2022-10-28T03:01:55.225Z,7.30
2022-10-28T03:06:56.796Z,8.93
2022-10-28T03:11:58.269Z,6.38
2022-10-28T03:16:59.714Z,6.75
2022-10-28T03:22:01.160Z,6.65
2022-10-28T03:27:02.601Z,8.30
2022-10-28T03:32:04.169Z,7.10
2022-10-28T03:37:05.622Z,6.95
2022-10-28T03:42:07.070Z,7.10
2022-10-28T03:47:08.563Z,7.38
2022-10-28T03:52:10.014Z,7.50
2022-10-28T03:57:11.466Z,7.63
2022-10-28T04:02:13.175Z,6.78
2022-10-28T04:07:14.749Z,7.82
2022-10-28T04:12:16.202Z,7.65
2022-10-28T04:17:17.666Z,8.90
2022-10-28T04:22:19.127Z,7.60
2022-10-28T04:27:21.087Z,7.85
2022-10-28T04:32:22.585Z,7.97
2022-10-28T04:37:24.805Z,7.75
2022-10-28T04:42:26.277Z,8.35
2022-10-28T04:47:27.742Z,7.60
2022-10-28T04:52:29.227Z,9.90
2022-10-28T04:57:32.337Z,9.35
2022-10-28T05:02:33.783Z,10.73
2022-10-28T05:07:35.230Z,10.10
2022-10-28T05:12:36.681Z,9.35
2022-10-28T05:17:40.169Z,8.68
2022-10-28T05:22:53.716Z,7.95
2022-10-28T05:27:59.145Z,8.85
2022-10-28T05:33:02.223Z,9.00
2022-10-28T05:38:03.965Z,7.65
2022-10-28T05:43:06.428Z,8.82
2022-10-28T05:48:07.876Z,8.57
2022-10-28T05:53:09.336Z,8.18
2022-10-28T05:58:10.793Z,8.27
2022-10-28T06:03:12.353Z,8.95
2022-10-28T06:08:13.866Z,8.88
2022-10-28T06:13:13.797Z,8.95
2022-10-28T06:18:16.805Z,8.77
2022-10-28T06:23:20.841Z,8.77
2022-10-28T06:28:22.344Z,9.20
2022-10-28T06:33:23.804Z,8.98
2022-10-28T06:38:26.055Z,10.48
2022-10-28T06:48:30.331Z,8.73
2022-10-28T06:53:31.844Z,8.75
2022-10-28T06:58:33.357Z,8.75
2022-10-28T07:03:34.822Z,8.82
2022-10-28T07:08:36.303Z,8.10
2022-10-28T07:13:37.782Z,9.02
2022-10-28T07:18:39.238Z,8.32
2022-10-28T07:23:40.720Z,8.23
2022-10-28T07:28:42.861Z,9.40
2022-10-28T07:33:44.319Z,9.27
2022-10-28T07:38:48.720Z,8.32
2022-10-28T07:43:50.260Z,9.00
2022-10-28T07:48:51.723Z,7.90
2022-10-28T07:53:53.319Z,8.30
2022-10-28T07:58:54.769Z,8.10
2022-10-28T08:03:56.899Z,8.52
2022-10-28T08:08:58.376Z,8.05
2022-10-28T08:14:01.240Z,7.82
2022-10-28T08:19:06.813Z,7.97
2022-10-28T08:24:09.343Z,8.15
2022-10-28T08:29:12.062Z,7.30
2022-10-28T08:34:13.574Z,6.97
2022-10-28T08:39:15.094Z,7.38
2022-10-28T08:44:53.739Z,6.88
2022-10-28T08:49:56.573Z,7.95
2022-10-28T08:55:02.303Z,7.60
2022-10-28T09:00:06.149Z,7.43
2022-10-28T09:05:17.372Z,7.70
2022-10-28T09:10:25.452Z,8.13
2022-10-28T09:15:54.920Z,7.65
2022-10-28T09:20:56.900Z,8.73
2022-10-28T09:26:01.430Z,7.53
2022-10-28T09:31:05.408Z,8.15
2022-10-28T09:36:14.034Z,7.40
2022-10-28T09:41:18.568Z,7.28
2022-10-28T09:46:20.035Z,8.13
2022-10-28T09:51:34.905Z,8.10
2022-10-28T09:56:36.382Z,7.70
2022-10-28T10:01:38.342Z,8.45
2022-10-28T10:06:39.867Z,7.47
2022-10-28T10:11:43.552Z,6.35
2022-10-28T10:16:46.924Z,7.82
2022-10-28T10:21:49.602Z,8.10
2022-10-28T10:26:51.785Z,8.13
2022-10-28T10:32:18.554Z,7.20
2022-10-28T10:37:21.166Z,7.43
2022-10-28T10:42:24.795Z,7.38
2022-10-28T10:47:26.270Z,8.30
2022-10-28T10:52:29.545Z,7.45
2022-10-28T10:57:30.998Z,7.05
2022-10-28T11:02:39.452Z,7.57
2022-10-28T11:12:57.475Z,6.57
2022-10-28T11:18:11.257Z,7.22
2022-10-28T11:23:46.035Z,7.05
2022-10-28T11:29:15.687Z,7.13
2022-10-28T11:34:26.823Z,6.78
2022-10-28T11:39:34.435Z,7.78
2022-10-28T11:44:59.897Z,7.38
2022-10-28T11:50:13.522Z,7.90
2022-10-28T11:55:37.684Z,6.90
2022-10-28T12:00:57.141Z,6.78
2022-10-28T12:06:09.732Z,6.90
2022-10-28T12:11:45.736Z,7.63
2022-10-28T12:16:57.309Z,7.25
2022-10-28T12:22:05.729Z,6.53
2022-10-28T12:27:17.050Z,7.50
2022-10-28T12:32:24.975Z,7.88
2022-10-28T12:37:44.678Z,6.93
2022-10-28T12:42:55.479Z,7.28
2022-10-28T12:48:16.759Z,7.80
2022-10-28T12:53:38.383Z,7.82
2022-10-28T12:58:50.379Z,7.85
2022-10-28T13:03:52.559Z,7.65
2022-10-28T13:14:34.160Z,7.55
2022-10-28T13:20:00.520Z,7.53
2022-10-28T13:25:34.204Z,7.32
2022-10-28T13:30:35.674Z,7.00
2022-10-28T13:35:37.144Z,7.80
2022-10-28T13:40:38.433Z,6.80
2022-10-28T13:45:54.312Z,7.05
2022-10-28T13:51:11.072Z,6.63
2022-10-28T13:56:37.591Z,7.13
2022-10-28T14:01:41.936Z,6.65
2022-10-28T14:06:43.763Z,6.85
2022-10-28T14:11:45.240Z,8.18
2022-10-28T14:16:46.700Z,6.20
2022-10-28T14:22:01.719Z,7.28
2022-10-28T14:27:06.752Z,6.25
2022-10-28T14:32:31.549Z,6.50
2022-10-28T14:38:08.588Z,6.82
2022-10-28T14:43:34.781Z,6.40
2022-10-28T14:48:42.783Z,5.75
2022-10-28T14:53:45.036Z,6.40
2022-10-28T14:58:46.521Z,6.63
2022-10-28T15:03:50.559Z,6.55
2022-10-28T15:08:52.087Z,5.93
2022-10-28T15:13:53.662Z,5.65
2022-10-28T15:18:55.120Z,7.03
2022-10-28T15:24:00.863Z,6.40
2022-10-28T15:29:02.364Z,6.85
2022-10-28T15:34:03.833Z,6.00
2022-10-28T15:39:06.924Z,6.95
2022-10-28T15:44:23.785Z,7.10
2022-10-28T15:49:36.151Z,6.60
2022-10-28T15:54:37.602Z,6.75
2022-10-28T15:59:39.057Z,5.88
2022-10-28T16:04:42.352Z,6.32
2022-10-28T16:09:46.480Z,6.28
2022-10-28T16:14:55.639Z,6.95
2022-10-28T16:19:58.697Z,6.00
2022-10-28T16:25:00.240Z,6.15
2022-10-28T16:30:01.710Z,7.00
2022-10-28T16:35:03.955Z,6.70
2022-10-28T16:40:09.206Z,6.93
2022-10-28T16:45:21.421Z,6.63
2022-10-28T16:50:23.326Z,5.90
2022-10-28T16:55:24.800Z,6.95
2022-10-28T17:00:26.255Z,6.55
2022-10-28T17:05:27.714Z,6.35
2022-10-28T17:10:29.165Z,6.88
2022-10-28T17:15:30.678Z,6.78
2022-10-28T17:20:32.171Z,6.57
2022-10-28T17:25:33.725Z,6.35
2022-10-28T17:30:35.541Z,6.32
2022-10-28T17:35:37.041Z,5.78
2022-10-28T17:40:38.488Z,6.93
2022-10-28T17:45:39.988Z,6.22
2022-10-28T17:50:41.448Z,5.80
2022-10-28T17:55:43.015Z,7.78
2022-10-28T18:00:45.499Z,6.18
2022-10-28T18:05:46.964Z,5.85
2022-10-28T18:10:55.207Z,6.88
2022-10-28T18:16:06.356Z,6.43
2022-10-28T18:21:10.907Z,6.53
2022-10-28T18:26:12.837Z,6.85
2022-10-28T18:31:18.281Z,6.72
2022-10-28T18:36:23.486Z,6.82
2022-10-28T18:41:26.640Z,6.10
2022-10-28T18:46:28.707Z,6.88
2022-10-28T18:51:30.279Z,7.40
2022-10-28T18:56:34.032Z,7.03
2022-10-28T19:01:36.125Z,6.90
2022-10-28T19:06:39.051Z,7.00
2022-10-28T19:11:40.532Z,5.93
2022-10-28T19:16:42.019Z,6.43
2022-10-28T19:21:43.500Z,7.97
2022-10-28T19:26:44.992Z,7.13
2022-10-28T19:31:46.793Z,7.43
2022-10-28T19:36:48.243Z,7.50
2022-10-28T19:41:49.765Z,6.70
2022-10-28T19:46:51.272Z,6.90
2022-10-28T19:51:52.733Z,5.97
2022-10-28T19:56:54.191Z,5.93
2022-10-28T20:01:55.692Z,6.25
2022-10-28T20:06:58.758Z,5.80
2022-10-28T20:12:01.791Z,5.88
2022-10-28T20:17:06.558Z,6.00
2022-10-28T20:22:08.368Z,5.28
2022-10-28T20:27:09.891Z,4.72
2022-10-28T20:32:11.356Z,5.03
2022-10-28T20:37:12.823Z,5.20
2022-10-28T20:42:14.296Z,4.82
2022-10-28T20:47:17.634Z,4.43
2022-10-28T20:52:19.148Z,3.15
2022-10-28T20:57:20.618Z,3.63
2022-10-28T21:02:22.174Z,3.13
2022-10-28T21:07:23.823Z,3.47
2022-10-28T21:12:25.899Z,3.03
2022-10-28T21:17:27.350Z,3.35
2022-10-28T21:22:28.824Z,3.17
2022-10-28T21:27:30.393Z,3.58
2022-10-28T21:32:32.204Z,2.65
2022-10-28T21:37:34.010Z,3.67
2022-10-28T21:42:35.473Z,3.28
2022-10-28T21:47:36.941Z,2.80
2022-10-28T21:52:38.396Z,2.83
2022-10-28T21:57:39.846Z,3.08
2022-10-28T22:02:41.418Z,3.55
2022-10-28T22:07:43.014Z,3.20
2022-10-28T22:12:44.453Z,3.25
2022-10-28T22:17:45.938Z,3.38
2022-10-28T22:22:47.400Z,3.10
2022-10-28T22:27:48.851Z,2.55
2022-10-28T22:32:50.307Z,2.90
2022-10-28T22:37:51.901Z,3.33
2022-10-28T22:42:53.631Z,3.40
2022-10-28T22:47:55.367Z,3.13
2022-10-28T22:52:57.205Z,2.85
2022-10-28T22:57:58.912Z,2.75
2022-10-28T23:03:00.901Z,2.30
2022-10-28T23:08:02.502Z,2.38
2022-10-28T23:13:03.969Z,2.60
2022-10-28T23:18:05.441Z,2.90
2022-10-28T23:23:06.906Z,2.45
2022-10-28T23:28:08.363Z,2.30
2022-10-28T23:33:09.821Z,2.33
2022-10-28T23:38:16.300Z,2.10
2022-10-28T23:43:17.765Z,1.65
2022-10-28T23:48:19.347Z,2.03
2022-10-28T23:53:21.036Z,1.83
2022-10-28T23:58:22.710Z,1.73
